createdAt,value
2018-03-26T00:03:10.726Z,4.60
2018-03-26T00:05:37.769Z,4.20
2018-03-26T00:08:05.052Z,3.93
2018-03-26T00:10:33.271Z,4.40
2018-03-26T00:13:00.052Z,4.10
2018-03-26T00:15:27.091Z,3.53
2018-03-26T00:17:54.157Z,4.03
2018-03-26T00:20:21.192Z,4.13
2018-03-26T00:22:48.226Z,4.53
2018-03-26T00:25:15.293Z,4.10
2018-03-26T00:27:43.196Z,4.13
2018-03-26T00:30:10.262Z,3.87
2018-03-26T00:32:37.359Z,3.70
2018-03-26T00:35:05.216Z,4.17
2018-03-26T00:37:32.277Z,3.90
2018-03-26T00:39:59.336Z,3.90
2018-03-26T00:42:26.379Z,4.20
2018-03-26T00:44:53.416Z,4.57
2018-03-26T00:47:20.504Z,4.37
2018-03-26T00:49:47.564Z,4.50
2018-03-26T00:52:14.606Z,4.27
2018-03-26T00:54:42.363Z,4.40
2018-03-26T00:57:09.405Z,4.03
2018-03-26T00:59:36.530Z,3.83
2018-03-26T01:02:03.617Z,3.67
2018-03-26T01:04:30.654Z,3.93
2018-03-26T01:06:57.696Z,4.13
2018-03-26T01:09:24.773Z,4.27
2018-03-26T01:11:51.809Z,4.13
2018-03-26T01:14:18.846Z,3.63
2018-03-26T01:16:46.015Z,3.77
2018-03-26T01:21:51.601Z,4.70
2018-03-26T01:24:18.910Z,4.20
2018-03-26T01:26:45.960Z,3.53
2018-03-26T01:29:13.029Z,4.00
2018-03-26T01:31:40.058Z,3.57
2018-03-26T01:34:07.122Z,4.40
2018-03-26T01:36:34.658Z,3.77
2018-03-26T01:39:01.690Z,3.83
2018-03-26T01:41:29.220Z,4.40
2018-03-26T01:43:56.284Z,4.00
2018-03-26T01:46:23.313Z,4.23
2018-03-26T01:48:50.336Z,4.30
2018-03-26T01:51:17.436Z,3.93
2018-03-26T01:53:44.576Z,4.13
2018-03-26T01:56:11.620Z,4.27
2018-03-26T01:58:38.686Z,3.90
2018-03-26T02:01:05.727Z,3.80
2018-03-26T02:03:32.845Z,4.57
2018-03-26T02:05:59.908Z,4.10
2018-03-26T02:08:26.943Z,4.10
2018-03-26T02:10:54.735Z,4.43
2018-03-26T02:13:21.814Z,4.23
2018-03-26T02:15:48.837Z,4.40
2018-03-26T02:18:15.849Z,3.70
2018-03-26T02:20:43.174Z,3.87
2018-03-26T02:23:10.208Z,4.57
2018-03-26T02:25:37.256Z,4.40
2018-03-26T02:28:04.316Z,3.97
2018-03-26T02:30:31.350Z,4.30
2018-03-26T02:32:58.400Z,4.77
2018-03-26T02:35:25.503Z,4.33
2018-03-26T02:37:52.540Z,3.37
2018-03-26T02:42:58.095Z,5.07
2018-03-26T02:48:05.263Z,5.05
2018-03-26T02:50:33.200Z,4.27
2018-03-26T02:53:03.307Z,4.43
2018-03-26T02:55:30.405Z,3.97
2018-03-26T02:58:00.289Z,4.60
2018-03-26T03:00:27.319Z,3.87
2018-03-26T03:02:54.381Z,4.13
2018-03-26T03:05:21.424Z,4.80
2018-03-26T03:07:48.465Z,4.97
2018-03-26T03:10:15.541Z,4.17
2018-03-26T03:12:42.578Z,4.47
2018-03-26T03:15:09.617Z,4.60
2018-03-26T03:17:36.698Z,4.17
2018-03-26T03:20:03.746Z,4.10
2018-03-26T03:22:30.814Z,3.93
2018-03-26T03:24:57.845Z,4.23
2018-03-26T03:27:24.885Z,4.23
2018-03-26T03:29:51.927Z,4.20
2018-03-26T03:32:19.970Z,4.47
2018-03-26T03:34:47.008Z,4.40
2018-03-26T03:37:14.048Z,3.97
2018-03-26T03:39:41.112Z,3.87
2018-03-26T03:42:11.242Z,4.60
2018-03-26T03:44:39.094Z,4.50
2018-03-26T03:47:06.763Z,4.47
2018-03-26T03:49:33.802Z,4.20
2018-03-26T03:52:00.876Z,4.00
2018-03-26T03:54:27.910Z,4.23
2018-03-26T03:56:55.918Z,4.23
2018-03-26T03:59:22.973Z,4.10
2018-03-26T04:04:28.540Z,5.03
2018-03-26T04:06:55.643Z,4.07
2018-03-26T04:09:22.674Z,4.37
2018-03-26T04:11:49.690Z,4.60
2018-03-26T04:14:16.786Z,4.50
2018-03-26T04:16:44.589Z,4.87
2018-03-26T04:19:11.634Z,4.97
2018-03-26T04:21:38.685Z,4.60
2018-03-26T04:24:05.728Z,4.80
2018-03-26T04:26:32.780Z,4.67
2018-03-26T04:28:59.855Z,4.17
2018-03-26T04:31:26.892Z,4.83
2018-03-26T04:33:53.925Z,5.13
2018-03-26T04:36:20.998Z,3.97
2018-03-26T04:38:49.620Z,4.37
2018-03-26T04:41:16.668Z,4.90
2018-03-26T04:43:43.725Z,4.13
2018-03-26T04:46:10.759Z,5.03
2018-03-26T04:48:37.796Z,4.80
2018-03-26T04:51:06.732Z,4.63
2018-03-26T04:53:33.742Z,4.10
2018-03-26T04:56:00.796Z,4.77
2018-03-26T04:58:27.879Z,4.27
2018-03-26T05:00:54.924Z,3.93
2018-03-26T05:03:22.784Z,4.57
2018-03-26T05:05:49.881Z,4.70
2018-03-26T05:08:16.929Z,4.20
2018-03-26T05:10:44.027Z,5.13
2018-03-26T05:13:11.114Z,4.30
2018-03-26T05:15:38.144Z,5.07
2018-03-26T05:18:05.181Z,4.40
2018-03-26T05:20:32.698Z,5.07
2018-03-26T05:22:59.727Z,4.70
2018-03-26T05:25:26.759Z,5.53
2018-03-26T05:27:53.836Z,5.00
2018-03-26T05:33:01.403Z,5.65
2018-03-26T05:35:28.434Z,5.43
2018-03-26T05:37:55.482Z,5.27
2018-03-26T05:40:22.545Z,5.47
2018-03-26T05:42:50.549Z,6.23
2018-03-26T05:45:17.582Z,6.43
2018-03-26T05:47:44.644Z,6.00
2018-03-26T05:50:11.673Z,6.27
2018-03-26T05:52:39.663Z,7.63
2018-03-26T05:55:06.768Z,9.20
2018-03-26T05:57:34.270Z,6.23
2018-03-26T06:00:01.345Z,6.80
2018-03-26T06:02:28.407Z,6.63
2018-03-26T06:04:55.438Z,6.63
2018-03-26T06:07:23.347Z,6.67
2018-03-26T06:09:50.443Z,6.23
2018-03-26T06:12:17.467Z,5.27
2018-03-26T06:14:51.100Z,5.50
2018-03-26T06:17:18.371Z,5.50
2018-03-26T06:19:45.410Z,7.00
2018-03-26T06:22:12.495Z,6.67
2018-03-26T06:24:40.376Z,5.83
2018-03-26T06:27:07.410Z,5.70
2018-03-26T06:29:34.504Z,5.17
2018-03-26T06:32:01.566Z,5.83
2018-03-26T06:34:30.066Z,6.17
2018-03-26T06:36:57.157Z,6.37
2018-03-26T06:39:24.214Z,6.00
2018-03-26T06:41:52.161Z,5.50
2018-03-26T06:44:19.252Z,5.70
2018-03-26T06:46:46.289Z,7.07
2018-03-26T06:49:13.346Z,6.40
2018-03-26T06:51:43.371Z,6.47
2018-03-26T06:54:10.449Z,6.27
2018-03-26T06:59:20.523Z,7.05
2018-03-26T07:01:47.848Z,6.40
2018-03-26T07:04:14.999Z,6.53
2018-03-26T07:06:42.239Z,7.07
2018-03-26T07:09:09.718Z,6.87
2018-03-26T07:14:15.740Z,8.30
2018-03-26T07:16:43.624Z,7.33
2018-03-26T07:19:10.663Z,7.33
2018-03-26T07:21:37.740Z,7.03
2018-03-26T07:24:04.771Z,7.17
2018-03-26T07:26:31.899Z,6.80
2018-03-26T07:28:59.016Z,6.47
2018-03-26T07:31:26.542Z,6.50
2018-03-26T07:33:53.578Z,5.53
2018-03-26T07:36:20.652Z,6.07
2018-03-26T07:38:48.560Z,6.00
2018-03-26T07:41:15.617Z,6.07
2018-03-26T07:43:42.704Z,6.10
2018-03-26T07:46:09.749Z,6.60
2018-03-26T07:48:36.800Z,8.00
2018-03-26T07:51:05.719Z,7.50
2018-03-26T07:56:11.942Z,8.13
2018-03-26T07:58:38.992Z,7.00
2018-03-26T08:01:08.634Z,6.30
2018-03-26T08:03:35.740Z,6.60
2018-03-26T08:06:07.797Z,7.53
2018-03-26T08:08:34.855Z,6.73
2018-03-26T08:11:02.775Z,6.83
2018-03-26T08:13:31.060Z,6.23
2018-03-26T08:15:58.186Z,6.60
2018-03-26T08:18:25.323Z,7.03
2018-03-26T08:20:53.181Z,6.60
2018-03-26T08:23:20.230Z,6.87
2018-03-26T08:25:47.327Z,6.67
2018-03-26T08:28:14.361Z,7.20
2018-03-26T08:30:41.417Z,6.33
2018-03-26T08:38:35.770Z,6.57
2018-03-26T08:41:02.919Z,7.13
2018-03-26T08:43:30.014Z,6.50
2018-03-26T08:45:57.082Z,6.87
2018-03-26T08:48:24.221Z,6.40
2018-03-26T08:50:51.230Z,6.63
2018-03-26T08:53:18.317Z,6.07
2018-03-26T08:58:24.498Z,7.50
2018-03-26T09:00:51.624Z,7.07
2018-03-26T09:03:24.938Z,6.33
2018-03-26T09:05:52.014Z,6.30
2018-03-26T09:08:19.066Z,5.50
2018-03-26T09:10:46.265Z,5.37
2018-03-26T09:13:13.318Z,6.10
2018-03-26T09:15:40.365Z,5.67
2018-03-26T09:18:08.586Z,6.20
2018-03-26T09:20:35.654Z,5.40
2018-03-26T09:23:05.931Z,5.53
2018-03-26T09:25:33.180Z,4.90
2018-03-26T09:28:00.233Z,4.90
2018-03-26T09:30:28.379Z,4.63
2018-03-26T09:32:56.319Z,5.50
2018-03-26T09:35:23.393Z,5.73
2018-03-26T09:37:50.384Z,5.40
2018-03-26T09:40:17.601Z,5.50
2018-03-26T09:42:44.576Z,6.17
2018-03-26T09:45:11.620Z,6.13
2018-03-26T09:47:38.699Z,8.07
2018-03-26T09:50:05.748Z,8.60
2018-03-26T09:52:32.770Z,7.60
2018-03-26T09:54:59.841Z,7.63
2018-03-26T09:57:26.864Z,8.23
2018-03-26T09:59:53.889Z,8.47
2018-03-26T10:02:20.962Z,8.00
2018-03-26T10:04:47.994Z,7.90
2018-03-26T10:07:15.065Z,6.33
2018-03-26T10:09:42.116Z,6.00
2018-03-26T10:12:09.141Z,6.20
2018-03-26T10:14:36.168Z,6.87
2018-03-26T10:17:03.249Z,7.80
2018-03-26T10:19:30.285Z,6.10
2018-03-26T10:24:35.846Z,7.70
2018-03-26T10:27:02.859Z,6.27
2018-03-26T10:29:29.985Z,6.47
2018-03-26T10:31:57.073Z,7.00
2018-03-26T10:34:25.101Z,7.47
2018-03-26T10:36:52.141Z,6.30
2018-03-26T10:39:19.249Z,6.47
2018-03-26T10:41:47.637Z,6.57
2018-03-26T10:44:13.350Z,7.77
2018-03-26T10:46:40.419Z,7.10
2018-03-26T10:49:07.489Z,6.73
2018-03-26T10:51:35.051Z,6.53
2018-03-26T10:54:02.135Z,6.23
2018-03-26T10:56:29.196Z,6.63
2018-03-26T10:58:59.440Z,6.30
2018-03-26T11:01:26.521Z,6.17
2018-03-26T11:03:53.609Z,5.87
2018-03-26T11:06:20.666Z,14.73
2018-03-26T11:08:48.020Z,18.93
2018-03-26T11:11:15.926Z,9.37
2018-03-26T11:13:46.803Z,7.67
2018-03-26T11:18:49.943Z,11.55
2018-03-26T11:21:19.100Z,11.80
2018-03-26T11:37:38.196Z,8.70
2018-03-26T11:40:06.798Z,15.37
2018-03-26T11:42:34.517Z,8.10
2018-03-26T11:45:02.225Z,7.80
2018-03-26T11:47:29.977Z,9.17
2018-03-26T11:49:58.815Z,11.57
2018-03-26T11:52:26.391Z,10.87
2018-03-26T11:54:55.015Z,10.47
2018-03-26T11:57:23.736Z,10.33
2018-03-26T11:59:51.394Z,9.67
2018-03-26T12:02:19.091Z,9.57
2018-03-26T12:04:46.770Z,10.03
2018-03-26T12:07:15.433Z,9.43
2018-03-26T12:09:43.166Z,9.83
2018-03-26T12:12:11.613Z,11.47
2018-03-26T12:14:42.116Z,10.57
2018-03-26T12:17:11.414Z,9.33
2018-03-26T12:19:50.525Z,9.47
2018-03-26T12:22:18.013Z,9.30
2018-03-26T12:27:32.205Z,11.80
2018-03-26T12:32:44.401Z,13.60
2018-03-26T12:35:23.649Z,12.70
2018-03-26T12:37:51.205Z,13.20
2018-03-26T12:40:30.429Z,12.17
2018-03-26T12:42:58.829Z,13.40
2018-03-26T12:45:32.238Z,13.60
2018-03-26T12:48:04.900Z,13.80
2018-03-26T12:50:44.784Z,13.60
2018-03-26T12:53:12.221Z,12.57
2018-03-26T12:55:40.488Z,13.43
2018-03-26T12:58:20.283Z,13.80
2018-03-26T13:00:59.966Z,13.93
2018-03-26T13:03:29.007Z,13.93
2018-03-26T13:05:57.905Z,12.80
2018-03-26T13:08:26.797Z,13.67
2018-03-26T13:10:54.710Z,13.43
2018-03-26T13:13:22.764Z,13.53
2018-03-26T13:15:50.465Z,13.53
2018-03-26T13:18:18.307Z,13.27
2018-03-26T13:20:46.444Z,13.80
2018-03-26T13:23:13.992Z,13.67
2018-03-26T13:25:42.527Z,16.20
2018-03-26T13:28:12.116Z,15.67
2018-03-26T13:30:39.905Z,13.80
2018-03-26T13:33:08.569Z,14.27
2018-03-26T13:35:36.312Z,15.13
2018-03-26T13:38:04.747Z,14.23
2018-03-26T13:40:32.806Z,14.40
2018-03-26T13:43:00.564Z,16.07
2018-03-26T13:45:28.938Z,15.33
2018-03-26T13:47:56.715Z,14.13
2018-03-26T13:50:24.350Z,15.00
2018-03-26T13:52:53.182Z,15.47
2018-03-26T13:57:59.666Z,17.10
2018-03-26T14:00:27.144Z,15.40
2018-03-26T14:02:54.630Z,14.27
2018-03-26T14:05:22.216Z,13.93
2018-03-26T14:07:49.835Z,22.90
2018-03-26T14:10:28.914Z,15.40
2018-03-26T14:13:08.062Z,13.73
2018-03-26T14:15:47.114Z,12.50
2018-03-26T14:18:14.501Z,12.80
2018-03-26T14:20:42.088Z,13.27
2018-03-26T14:23:09.559Z,15.27
2018-03-26T14:25:38.167Z,16.00
2018-03-26T14:28:05.692Z,17.40
2018-03-26T14:30:34.459Z,16.47
2018-03-26T14:33:02.067Z,15.87
2018-03-26T14:38:11.118Z,26.37
2018-03-26T14:40:38.449Z,17.00
2018-03-26T14:43:08.906Z,16.33
2018-03-26T14:45:36.529Z,16.40
2018-03-26T14:48:05.062Z,17.73
2018-03-26T14:50:32.554Z,15.53
2018-03-26T14:53:00.151Z,16.63
2018-03-26T14:55:28.732Z,17.63
2018-03-26T14:57:56.738Z,16.50
2018-03-26T15:00:23.920Z,16.97
2018-03-26T15:02:52.598Z,16.77
2018-03-26T15:05:20.332Z,16.27
2018-03-26T15:07:47.742Z,16.87
2018-03-26T15:10:16.122Z,16.47
2018-03-26T15:12:44.790Z,17.37
2018-03-26T15:15:12.254Z,16.87
2018-03-26T15:17:41.033Z,14.80
2018-03-26T15:20:09.463Z,15.90
2018-03-26T15:22:38.127Z,16.40
2018-03-26T15:25:06.443Z,16.87
2018-03-26T15:27:33.949Z,15.77
2018-03-26T15:30:07.126Z,16.03
2018-03-26T15:32:35.635Z,15.93
2018-03-26T15:35:03.918Z,16.43
2018-03-26T15:37:32.204Z,14.83
2018-03-26T15:39:59.824Z,15.63
2018-03-26T15:42:28.329Z,15.03
2018-03-26T15:44:56.677Z,14.73
2018-03-26T15:47:24.335Z,13.73
2018-03-26T15:49:52.727Z,14.60
2018-03-26T15:52:20.393Z,15.97
2018-03-26T15:54:49.351Z,15.60
2018-03-26T15:59:54.732Z,17.80
2018-03-26T16:02:22.260Z,17.23
2018-03-26T16:04:49.970Z,15.57
2018-03-26T16:07:17.815Z,16.50
2018-03-26T16:09:45.593Z,15.10
2018-03-26T16:12:12.925Z,15.60
2018-03-26T16:14:46.512Z,15.47
2018-03-26T16:17:13.976Z,14.87
2018-03-26T16:19:43.923Z,14.67
2018-03-26T16:22:13.137Z,16.43
2018-03-26T16:24:44.264Z,15.33
2018-03-26T16:27:12.506Z,14.90
2018-03-26T16:29:40.278Z,15.43
2018-03-26T16:32:07.409Z,15.20
2018-03-26T16:37:10.972Z,18.40
2018-03-26T16:39:39.159Z,15.77
2018-03-26T16:44:56.693Z,19.77
2018-03-26T16:47:24.382Z,15.87
2018-03-26T16:49:52.692Z,14.63
2018-03-26T16:52:20.420Z,15.50
2018-03-26T16:54:48.965Z,15.73
2018-03-26T16:57:16.704Z,17.97
2018-03-26T16:59:45.079Z,16.07
2018-03-26T17:02:12.589Z,13.77
2018-03-26T17:04:46.191Z,13.10
2018-03-26T17:07:18.702Z,11.77
2018-03-26T17:09:46.885Z,11.87
2018-03-26T17:12:16.415Z,12.20
2018-03-26T17:14:48.584Z,12.97
2018-03-26T17:17:21.254Z,10.77
2018-03-26T17:19:49.086Z,11.43
2018-03-26T17:22:22.362Z,12.00
2018-03-26T17:24:50.747Z,11.80
2018-03-26T17:27:18.444Z,12.67
2018-03-26T17:29:48.506Z,13.60
2018-03-26T17:37:32.882Z,16.83
2018-03-26T17:40:01.685Z,15.57
2018-03-26T17:42:30.640Z,11.20
2018-03-26T17:44:59.059Z,10.20
2018-03-26T17:47:27.028Z,12.67
2018-03-26T17:49:54.036Z,12.13
2018-03-26T17:52:21.156Z,11.83
2018-03-26T17:54:48.407Z,11.43
2018-03-26T17:57:21.741Z,11.23
2018-03-26T17:59:48.888Z,11.37
2018-03-26T18:02:16.294Z,11.50
2018-03-26T18:04:43.281Z,11.20
2018-03-26T18:07:11.157Z,10.70
2018-03-26T18:09:37.870Z,10.50
2018-03-26T18:12:04.911Z,9.67
2018-03-26T18:14:32.042Z,10.77
2018-03-26T18:16:59.100Z,10.57
2018-03-26T18:19:26.496Z,10.50
2018-03-26T18:21:53.923Z,10.40
2018-03-26T18:24:21.005Z,9.80
2018-03-26T18:26:48.135Z,11.63
2018-03-26T18:29:15.226Z,14.53
2018-03-26T18:31:42.295Z,15.50
2018-03-26T18:34:09.407Z,15.70
2018-03-26T18:36:36.460Z,15.63
2018-03-26T18:41:43.001Z,18.35
2018-03-26T18:44:10.967Z,16.40
2018-03-26T18:46:37.993Z,15.70
2018-03-26T18:49:05.102Z,17.20
2018-03-26T18:51:33.102Z,16.53
2018-03-26T18:54:00.282Z,15.90
2018-03-26T18:56:28.396Z,16.50
2018-03-26T18:58:55.643Z,17.40
2018-03-26T19:03:53.377Z,17.87
2018-03-26T19:06:20.530Z,18.53
2018-03-26T19:08:47.580Z,18.73
2018-03-26T19:11:14.682Z,17.63
2018-03-26T19:13:41.727Z,18.10
2018-03-26T19:16:08.852Z,18.17
2018-03-26T19:18:36.015Z,17.63
2018-03-26T19:21:04.562Z,18.13
2018-03-26T19:23:31.652Z,20.30
2018-03-26T19:25:58.716Z,20.30
2018-03-26T19:28:25.774Z,18.87
2018-03-26T19:30:52.841Z,18.67
2018-03-26T19:33:19.971Z,17.70
2018-03-26T19:35:47.055Z,19.27
2018-03-26T19:38:14.124Z,18.50
2018-03-26T19:40:41.258Z,17.70
2018-03-26T19:43:08.332Z,18.17
2018-03-26T19:45:35.358Z,20.77
2018-03-26T19:48:02.442Z,19.57
2018-03-26T19:50:29.488Z,20.07
2018-03-26T19:52:56.549Z,20.90
2018-03-26T19:55:23.608Z,19.63
2018-03-26T19:57:50.657Z,18.43
2018-03-26T20:00:17.739Z,20.90
2018-03-26T20:02:44.886Z,20.47
2018-03-26T20:07:51.415Z,25.27
2018-03-26T20:10:18.436Z,21.80
2018-03-26T20:12:46.536Z,21.37
2018-03-26T20:15:13.625Z,19.23
2018-03-26T20:17:44.592Z,20.00
2018-03-26T20:20:11.650Z,19.30
2018-03-26T20:22:44.364Z,20.20
2018-03-26T20:33:56.690Z,19.83
2018-03-26T20:36:23.734Z,19.07
2018-03-26T20:38:50.967Z,19.57
2018-03-26T20:41:18.019Z,19.47
2018-03-26T20:43:51.539Z,20.20
2018-03-26T20:46:25.573Z,21.93
2018-03-26T20:48:56.744Z,21.37
2018-03-26T20:51:24.205Z,20.60
2018-03-26T20:53:52.519Z,20.00
2018-03-26T20:56:19.806Z,19.73
2018-03-26T20:58:46.876Z,19.47
2018-03-26T21:01:13.994Z,19.67
2018-03-26T21:03:41.847Z,18.90
2018-03-26T21:06:08.991Z,19.90
2018-03-26T21:08:36.061Z,18.30
2018-03-26T21:11:03.082Z,19.00
2018-03-26T21:13:30.173Z,19.20
2018-03-26T21:15:57.203Z,18.80
2018-03-26T21:18:24.249Z,19.03
2018-03-26T21:26:18.751Z,25.37
2018-03-26T21:28:51.127Z,20.70
2018-03-26T21:31:18.192Z,19.87
2018-03-26T21:39:04.448Z,25.75
2018-03-26T21:41:31.938Z,22.33
2018-03-26T21:43:58.960Z,20.13
2018-03-26T21:46:25.987Z,21.50
2018-03-26T21:48:53.710Z,19.93
2018-03-26T21:51:21.669Z,21.83
2018-03-26T21:53:48.383Z,20.20
2018-03-26T21:56:15.975Z,21.33
2018-03-26T21:58:43.479Z,21.33
2018-03-26T22:01:12.875Z,20.30
2018-03-26T22:03:38.427Z,21.23
2018-03-26T22:06:05.538Z,22.10
2018-03-26T22:08:32.562Z,22.77
2018-03-26T22:11:00.460Z,23.50
2018-03-26T22:13:28.350Z,22.47
2018-03-26T22:15:55.910Z,21.83
2018-03-26T22:21:04.752Z,26.48
2018-03-26T22:23:31.952Z,23.13
2018-03-26T22:25:58.991Z,22.30
2018-03-26T22:28:26.031Z,22.33
2018-03-26T22:30:53.122Z,23.80
2018-03-26T22:33:20.144Z,22.97
2018-03-26T22:35:47.649Z,21.87
2018-03-26T22:38:14.711Z,22.87
2018-03-26T22:40:41.735Z,21.10
2018-03-26T22:43:08.795Z,23.77
2018-03-26T22:45:36.139Z,23.10
2018-03-26T22:48:04.029Z,23.40
2018-03-26T22:50:31.065Z,21.47
2018-03-26T22:53:00.166Z,24.13
2018-03-26T22:55:27.364Z,23.73
2018-03-26T22:57:55.678Z,23.60
2018-03-26T23:00:22.778Z,23.77
2018-03-26T23:02:49.806Z,24.03
2018-03-26T23:05:16.851Z,25.00
2018-03-26T23:07:44.370Z,23.17
2018-03-26T23:10:11.839Z,24.37
2018-03-26T23:12:40.850Z,24.13
2018-03-26T23:15:07.926Z,24.37
2018-03-26T23:17:34.962Z,24.20
2018-03-26T23:22:47.672Z,31.25
2018-03-26T23:25:14.704Z,26.73
2018-03-26T23:27:41.750Z,25.07
2018-03-26T23:30:08.838Z,25.30
2018-03-26T23:32:35.895Z,25.43
2018-03-26T23:35:07.198Z,24.87
2018-03-26T23:37:34.378Z,25.80
2018-03-26T23:40:04.341Z,25.83
2018-03-26T23:42:32.298Z,26.30
2018-03-26T23:44:59.367Z,25.03
2018-03-26T23:50:05.506Z,31.45
2018-03-26T23:52:33.496Z,28.43
2018-03-26T23:55:00.549Z,27.27
2018-03-26T23:57:28.592Z,26.23
2018-03-26T23:59:55.619Z,25.43
